createdAt,value
2022-11-05T00:00:39.170Z,60.28
2022-11-05T00:03:25.359Z,62.30
2022-11-05T00:06:12.148Z,65.55
2022-11-05T00:08:58.743Z,52.42
2022-11-05T00:11:45.144Z,55.10
2022-11-05T00:14:30.209Z,57.05
2022-11-05T00:16:56.648Z,44.63
2022-11-05T00:19:23.032Z,48.67
2022-11-05T00:22:08.082Z,43.75
2022-11-05T00:24:53.076Z,46.20
2022-11-05T00:27:19.472Z,42.40
2022-11-05T00:29:45.972Z,40.15
2022-11-05T00:32:12.342Z,46.58
2022-11-05T00:34:38.728Z,45.25
2022-11-05T00:37:05.171Z,53.60
2022-11-05T00:39:31.554Z,54.00
2022-11-05T00:42:16.339Z,53.58
2022-11-05T00:45:01.008Z,57.13
2022-11-05T00:47:45.893Z,57.20
2022-11-05T00:50:12.289Z,52.55
2022-11-05T00:53:07.984Z,58.55
2022-11-05T00:55:37.939Z,57.17
2022-11-05T00:58:08.063Z,61.55
2022-11-05T01:00:36.594Z,60.10
2022-11-05T01:03:12.144Z,56.38
2022-11-05T01:05:44.765Z,68.28
2022-11-05T01:08:12.254Z,62.42
2022-11-05T01:10:43.063Z,71.03
2022-11-05T01:13:12.948Z,58.85
2022-11-05T01:15:40.649Z,57.30
2022-11-05T01:18:07.044Z,60.78
2022-11-05T01:20:33.512Z,63.03
2022-11-05T01:22:59.928Z,62.00
2022-11-05T01:25:26.347Z,59.95
2022-11-05T01:27:52.755Z,71.00
2022-11-05T01:30:19.757Z,54.17
2022-11-05T01:32:46.225Z,65.07
2022-11-05T01:35:15.202Z,64.82
2022-11-05T01:37:41.661Z,53.58
2022-11-05T01:40:11.131Z,53.63
2022-11-05T01:42:37.625Z,53.85
2022-11-05T01:45:07.244Z,49.25
2022-11-05T01:47:57.777Z,50.53
2022-11-05T01:50:36.323Z,52.22
2022-11-05T01:53:12.932Z,53.28
2022-11-05T01:56:03.625Z,54.92
2022-11-05T01:58:40.489Z,60.78
2022-11-05T02:01:06.936Z,74.22
2022-11-05T02:03:33.482Z,64.88
2022-11-05T02:06:01.096Z,60.28
2022-11-05T02:08:36.876Z,54.63
2022-11-05T02:11:03.373Z,60.42
2022-11-05T02:13:29.736Z,65.28
2022-11-05T02:16:08.493Z,64.65
2022-11-05T02:18:42.381Z,55.80
2022-11-05T02:21:50.983Z,58.05
2022-11-05T02:24:26.826Z,58.47
2022-11-05T02:27:15.250Z,56.35
2022-11-05T02:30:07.038Z,51.17
2022-11-05T02:32:58.857Z,52.40
2022-11-05T02:35:56.146Z,53.65
2022-11-05T02:38:46.206Z,53.78
2022-11-05T02:41:23.086Z,56.08
2022-11-05T02:44:23.284Z,52.30
2022-11-05T02:47:19.214Z,56.00
2022-11-05T02:50:03.955Z,49.03
2022-11-05T02:52:51.299Z,56.03
2022-11-05T02:55:18.300Z,59.67
2022-11-05T02:57:47.852Z,60.15
2022-11-05T03:00:40.282Z,46.15
2022-11-05T03:03:27.874Z,57.10
2022-11-05T03:06:10.236Z,61.63
2022-11-05T03:09:20.006Z,58.15
2022-11-05T03:12:06.312Z,53.35
2022-11-05T03:15:19.771Z,58.05
2022-11-05T03:18:05.742Z,61.22
2022-11-05T03:21:17.359Z,54.90
2022-11-05T03:24:10.916Z,57.15
2022-11-05T03:26:46.839Z,76.45
2022-11-05T03:29:19.431Z,59.67
2022-11-05T03:31:48.359Z,60.78
2022-11-05T03:34:17.391Z,65.03
2022-11-05T03:36:48.548Z,72.43
2022-11-05T03:39:22.963Z,67.32
2022-11-05T03:41:51.310Z,62.83
2022-11-05T03:44:22.241Z,67.97
2022-11-05T03:46:49.789Z,66.53
2022-11-05T03:49:30.809Z,65.55
2022-11-05T03:54:25.618Z,64.47
2022-11-05T03:57:13.958Z,62.63
2022-11-05T03:59:48.740Z,61.97
2022-11-05T04:02:17.135Z,76.28
2022-11-05T04:04:43.825Z,68.40
2022-11-05T04:07:29.828Z,78.15
2022-11-05T04:10:15.400Z,67.70
2022-11-05T04:13:00.311Z,66.30
2022-11-05T04:15:26.985Z,71.97
2022-11-05T04:17:53.841Z,67.82
2022-11-05T04:20:38.944Z,70.43
2022-11-05T04:23:25.437Z,78.05
2022-11-05T04:25:51.880Z,71.00
2022-11-05T04:28:18.975Z,74.95
2022-11-05T04:30:45.594Z,67.30
2022-11-05T04:33:16.427Z,71.93
2022-11-05T04:35:48.060Z,82.50
2022-11-05T04:38:18.959Z,70.38
2022-11-05T04:40:46.355Z,73.80
2022-11-05T04:43:18.238Z,69.55
2022-11-05T04:45:45.516Z,68.40
2022-11-05T04:48:12.192Z,90.93
2022-11-05T04:50:39.317Z,73.93
2022-11-05T04:53:05.734Z,79.45
2022-11-05T04:55:32.113Z,77.32
2022-11-05T04:57:58.587Z,76.43
2022-11-05T05:00:25.539Z,74.40
2022-11-05T05:02:52.299Z,75.05
2022-11-05T05:05:18.743Z,66.22
2022-11-05T05:07:45.581Z,61.05
2022-11-05T05:10:12.875Z,63.40
2022-11-05T05:12:39.254Z,78.43
2022-11-05T05:15:06.342Z,63.50
2022-11-05T05:17:32.814Z,74.45
2022-11-05T05:20:17.559Z,69.45
2022-11-05T05:22:44.052Z,65.13
2022-11-05T05:25:10.430Z,59.10
2022-11-05T05:27:36.828Z,74.55
2022-11-05T05:30:03.913Z,68.32
2022-11-05T05:32:30.354Z,66.53
2022-11-05T05:34:56.820Z,67.88
2022-11-05T05:37:23.274Z,74.25
2022-11-05T05:39:49.770Z,67.75
2022-11-05T05:42:16.358Z,72.53
2022-11-05T05:44:42.750Z,81.88
2022-11-05T05:47:09.157Z,76.03
2022-11-05T05:49:35.693Z,70.78
2022-11-05T05:52:02.408Z,68.30
2022-11-05T05:54:32.688Z,74.63
2022-11-05T05:56:59.995Z,70.30
2022-11-05T05:59:26.403Z,79.47
2022-11-05T06:01:53.319Z,81.25
2022-11-05T06:04:20.646Z,75.75
2022-11-05T06:06:47.255Z,86.90
2022-11-05T06:09:14.545Z,90.25
2022-11-05T06:11:41.313Z,78.50
2022-11-05T06:14:12.305Z,85.80
2022-11-05T06:19:06.736Z,71.63
2022-11-05T06:21:33.217Z,74.72
2022-11-05T06:24:00.989Z,80.32
2022-11-05T06:26:27.526Z,87.75
2022-11-05T06:28:53.910Z,85.10
2022-11-05T06:31:21.103Z,90.07
2022-11-05T06:33:47.641Z,78.53
2022-11-05T06:36:15.667Z,86.70
2022-11-05T06:38:42.121Z,100.32
2022-11-05T06:41:10.519Z,103.82
2022-11-05T06:43:37.726Z,101.38
2022-11-05T06:46:04.272Z,98.97
2022-11-05T06:48:30.728Z,104.35
2022-11-05T06:50:57.117Z,113.85
2022-11-05T06:53:23.498Z,103.15
2022-11-05T06:55:49.889Z,102.50
2022-11-05T06:58:16.368Z,106.07
2022-11-05T07:00:42.749Z,109.22
2022-11-05T07:03:11.102Z,102.15
2022-11-05T07:05:40.571Z,118.57
2022-11-05T07:08:07.228Z,108.30
2022-11-05T07:10:33.850Z,103.15
2022-11-05T07:13:03.766Z,120.00
2022-11-05T07:15:34.080Z,112.60
2022-11-05T07:18:01.442Z,115.55
2022-11-05T07:20:33.213Z,119.13
2022-11-05T07:23:06.711Z,104.75
2022-11-05T07:25:34.120Z,114.15
2022-11-05T07:28:00.933Z,112.88
2022-11-05T07:30:27.886Z,115.28
2022-11-05T07:32:54.575Z,112.22
2022-11-05T07:35:20.981Z,114.65
2022-11-05T07:37:49.575Z,109.88
2022-11-05T07:40:20.766Z,117.53
2022-11-05T07:42:49.186Z,116.10
2022-11-05T07:45:16.167Z,128.43
2022-11-05T07:47:50.288Z,119.55
2022-11-05T07:50:18.406Z,128.75
2022-11-05T07:52:45.176Z,113.90
2022-11-05T07:55:13.179Z,117.03
2022-11-05T07:57:44.265Z,121.38
2022-11-05T08:02:42.522Z,115.22
2022-11-05T08:05:09.588Z,108.22
2022-11-05T08:07:36.045Z,124.63
2022-11-05T08:10:05.553Z,117.80
2022-11-05T08:12:32.624Z,124.15
2022-11-05T08:14:59.130Z,132.27
2022-11-05T08:17:25.671Z,115.47
2022-11-05T08:19:52.074Z,120.20
2022-11-05T08:22:18.464Z,116.25
2022-11-05T08:24:45.027Z,117.68
2022-11-05T08:27:11.426Z,115.22
2022-11-05T08:29:37.846Z,123.03
2022-11-05T08:32:04.272Z,103.68
2022-11-05T08:34:30.674Z,110.68
2022-11-05T08:36:57.057Z,116.47
2022-11-05T08:39:23.453Z,98.78
2022-11-05T08:41:50.495Z,90.60
2022-11-05T08:44:17.305Z,88.05
2022-11-05T08:46:43.702Z,84.47
2022-11-05T08:49:10.233Z,78.50
2022-11-05T08:51:36.667Z,80.85
2022-11-05T08:54:03.082Z,68.40
2022-11-05T08:56:29.514Z,66.80
2022-11-05T08:58:55.962Z,69.35
2022-11-05T09:01:22.483Z,68.70
2022-11-05T09:03:52.402Z,76.80
2022-11-05T09:06:20.296Z,69.00
2022-11-05T09:08:46.832Z,76.45
2022-11-05T09:11:15.594Z,65.78
2022-11-05T09:13:42.302Z,49.78
2022-11-05T09:16:17.979Z,59.13
2022-11-05T09:18:44.403Z,45.60
2022-11-05T09:21:10.946Z,40.50
2022-11-05T09:23:37.348Z,49.42
2022-11-05T09:26:06.062Z,53.28
2022-11-05T09:28:33.100Z,45.70
2022-11-05T09:31:00.614Z,47.40
2022-11-05T09:33:27.033Z,37.50
2022-11-05T09:35:53.723Z,48.55
2022-11-05T09:38:20.265Z,42.65
2022-11-05T09:40:54.928Z,42.00
2022-11-05T09:43:31.274Z,41.20
2022-11-05T09:45:59.841Z,34.67
2022-11-05T09:48:29.399Z,49.15
2022-11-05T09:50:55.880Z,35.47
2022-11-05T09:53:23.342Z,36.47
2022-11-05T09:55:52.669Z,36.72
2022-11-05T09:58:31.096Z,42.05
2022-11-05T10:01:00.968Z,38.65
2022-11-05T10:03:29.532Z,31.92
2022-11-05T10:06:03.445Z,30.83
2022-11-05T10:08:33.735Z,32.50
2022-11-05T10:11:31.851Z,35.38
2022-11-05T10:14:23.450Z,33.47
2022-11-05T10:16:56.445Z,35.70
2022-11-05T10:19:26.367Z,30.25
2022-11-05T10:22:14.091Z,31.10
2022-11-05T10:24:42.921Z,27.48
2022-11-05T10:27:15.786Z,28.38
2022-11-05T10:29:43.410Z,25.25
2022-11-05T10:32:12.523Z,25.33
2022-11-05T10:34:39.351Z,29.77
2022-11-05T10:37:05.764Z,26.63
2022-11-05T10:39:33.399Z,29.58
2022-11-05T10:42:44.503Z,26.15
2022-11-05T10:45:19.988Z,30.13
2022-11-05T10:48:05.341Z,28.42
2022-11-05T10:50:32.247Z,34.78
2022-11-05T10:53:01.426Z,27.42
2022-11-05T10:55:33.456Z,27.65
2022-11-05T10:58:15.129Z,26.45
2022-11-05T11:00:52.961Z,25.35
2022-11-05T11:03:38.446Z,27.30
2022-11-05T11:06:38.250Z,25.05
2022-11-05T11:09:19.718Z,27.85
2022-11-05T11:11:46.756Z,21.23
2022-11-05T11:14:16.392Z,19.80
2022-11-05T11:16:46.469Z,20.25
2022-11-05T11:19:34.451Z,20.58
2022-11-05T11:22:04.742Z,21.50
2022-11-05T11:24:41.241Z,25.92
2022-11-05T11:27:18.138Z,20.67
2022-11-05T11:29:49.855Z,20.77
2022-11-05T11:32:19.269Z,22.17
2022-11-05T11:34:50.604Z,23.67
2022-11-05T11:37:22.109Z,21.77
2022-11-05T11:39:56.932Z,20.35
2022-11-05T11:42:34.550Z,15.48
2022-11-05T11:45:06.322Z,24.10
2022-11-05T11:47:33.277Z,15.75
2022-11-05T11:50:01.345Z,18.73
2022-11-05T11:52:33.433Z,21.00
2022-11-05T11:55:11.962Z,20.58
2022-11-05T11:57:50.980Z,19.13
2022-11-05T12:00:18.792Z,15.23
2022-11-05T12:03:10.321Z,25.55
2022-11-05T12:05:55.382Z,20.08
2022-11-05T12:09:12.213Z,22.15
2022-11-05T12:11:53.959Z,15.93
2022-11-05T12:14:33.517Z,19.63
2022-11-05T12:17:21.456Z,18.25
2022-11-05T12:19:50.951Z,20.45
2022-11-05T12:22:49.332Z,19.85
2022-11-05T12:25:29.130Z,17.55
2022-11-05T12:28:04.432Z,20.15
2022-11-05T12:30:47.847Z,16.80
2022-11-05T12:33:26.573Z,18.95
2022-11-05T12:36:14.580Z,33.20
2022-11-05T12:38:55.960Z,22.17
2022-11-05T12:41:27.317Z,21.13
2022-11-05T12:44:24.260Z,14.95
2022-11-05T12:47:15.520Z,17.70
2022-11-05T12:50:05.692Z,20.65
2022-11-05T12:52:49.594Z,22.63
2022-11-05T12:55:27.968Z,18.20
2022-11-05T12:57:58.028Z,15.98
2022-11-05T13:00:26.779Z,17.95
2022-11-05T13:03:17.047Z,19.88
2022-11-05T13:05:50.706Z,16.80
2022-11-05T13:08:31.858Z,18.35
2022-11-05T13:13:31.697Z,17.00
2022-11-05T13:16:05.466Z,19.90
2022-11-05T13:18:44.283Z,19.65
2022-11-05T13:21:12.059Z,19.23
2022-11-05T13:23:50.235Z,20.58
2022-11-05T13:26:44.007Z,19.05
2022-11-05T13:29:33.482Z,18.45
2022-11-05T13:32:14.441Z,15.50
2022-11-05T13:34:41.407Z,14.20
2022-11-05T13:37:27.716Z,18.17
2022-11-05T13:39:57.862Z,16.30
2022-11-05T13:42:49.792Z,14.20
2022-11-05T13:45:39.070Z,20.20
2022-11-05T13:48:28.432Z,14.98
2022-11-05T13:51:07.994Z,16.30
2022-11-05T13:54:02.013Z,17.42
2022-11-05T13:56:42.030Z,18.02
2022-11-05T13:59:19.130Z,14.43
2022-11-05T14:03:00.583Z,15.98
2022-11-05T14:05:33.395Z,19.17
2022-11-05T14:08:02.205Z,16.67
2022-11-05T14:10:41.529Z,14.52
2022-11-05T14:13:19.025Z,15.65
2022-11-05T14:16:05.865Z,13.82
2022-11-05T14:18:37.627Z,13.73
2022-11-05T14:21:06.714Z,14.07
2022-11-05T14:23:40.902Z,15.73
2022-11-05T14:26:16.908Z,14.73
2022-11-05T14:28:46.104Z,17.13
2022-11-05T14:31:31.428Z,19.15
2022-11-05T14:34:10.649Z,12.00
2022-11-05T14:36:40.745Z,14.80
2022-11-05T14:39:26.455Z,15.47
2022-11-05T14:41:56.899Z,14.45
2022-11-05T14:44:24.726Z,10.30
2022-11-05T14:46:53.804Z,12.65
2022-11-05T14:49:28.285Z,14.18
2022-11-05T14:51:56.863Z,14.43
2022-11-05T14:54:35.210Z,12.70
2022-11-05T14:57:02.456Z,13.88
2022-11-05T14:59:28.841Z,23.02
2022-11-05T15:01:57.277Z,13.13
2022-11-05T15:04:29.437Z,30.95
2022-11-05T15:07:02.021Z,16.52
2022-11-05T15:09:46.607Z,18.40
2022-11-05T15:12:23.992Z,13.27
2022-11-05T15:14:53.683Z,13.57
2022-11-05T15:17:26.546Z,16.25
2022-11-05T15:19:53.442Z,15.65
2022-11-05T15:22:27.366Z,20.83
2022-11-05T15:24:54.839Z,23.85
2022-11-05T15:27:40.172Z,15.77
2022-11-05T15:30:24.786Z,22.83
2022-11-05T15:32:51.925Z,15.38
2022-11-05T15:35:18.484Z,13.45
2022-11-05T15:37:54.683Z,14.82
2022-11-05T15:40:29.201Z,13.35
2022-11-05T15:43:19.342Z,21.17
2022-11-05T15:46:04.241Z,15.93
2022-11-05T15:48:31.064Z,17.00
2022-11-05T15:50:57.715Z,15.77
2022-11-05T15:56:43.837Z,17.90
2022-11-05T15:59:19.058Z,15.55
2022-11-05T16:01:48.059Z,14.38
2022-11-05T16:04:23.833Z,13.52
2022-11-05T16:06:53.491Z,16.27
2022-11-05T16:09:23.855Z,13.63
2022-11-05T16:12:14.112Z,14.27
2022-11-05T16:14:41.642Z,13.27
2022-11-05T16:17:19.530Z,15.52
2022-11-05T16:19:46.936Z,13.40
2022-11-05T16:22:13.720Z,17.00
2022-11-05T16:24:40.159Z,15.23
2022-11-05T16:27:07.056Z,12.18
2022-11-05T16:29:41.207Z,13.23
2022-11-05T16:32:17.315Z,12.32
2022-11-05T16:34:49.361Z,13.95
2022-11-05T16:37:17.529Z,16.35
2022-11-05T16:39:43.924Z,15.90
2022-11-05T16:42:22.795Z,14.80
2022-11-05T16:44:53.241Z,18.25
2022-11-05T16:47:20.475Z,12.65
2022-11-05T16:49:50.291Z,15.27
2022-11-05T16:52:16.712Z,13.85
2022-11-05T16:54:43.252Z,19.42
2022-11-05T16:57:30.750Z,15.30
2022-11-05T16:59:59.021Z,19.92
2022-11-05T17:02:26.086Z,13.63
2022-11-05T17:04:52.610Z,17.75
2022-11-05T17:07:19.064Z,13.93
2022-11-05T17:09:45.437Z,16.52
2022-11-05T17:12:12.227Z,14.00
2022-11-05T17:14:39.042Z,15.55
2022-11-05T17:17:05.861Z,14.63
2022-11-05T17:19:32.571Z,25.15
2022-11-05T17:21:59.001Z,15.82
2022-11-05T17:24:25.385Z,12.88
2022-11-05T17:26:51.845Z,14.90
2022-11-05T17:29:18.279Z,21.02
2022-11-05T17:31:44.718Z,11.07
2022-11-05T17:34:11.165Z,19.58
2022-11-05T17:36:37.571Z,19.98
2022-11-05T17:39:04.181Z,15.00
2022-11-05T17:41:30.983Z,17.08
2022-11-05T17:43:57.633Z,13.65
2022-11-05T17:46:24.254Z,16.70
2022-11-05T17:48:50.696Z,21.52
2022-11-05T17:51:19.341Z,13.23
2022-11-05T17:53:48.630Z,15.68
2022-11-05T17:56:27.228Z,14.07
2022-11-05T17:58:56.263Z,14.75
2022-11-05T18:01:26.722Z,18.63
2022-11-05T18:03:54.399Z,22.85
2022-11-05T18:06:21.760Z,17.75
2022-11-05T18:08:48.899Z,17.48
2022-11-05T18:11:16.115Z,14.48
2022-11-05T18:13:42.913Z,22.85
2022-11-05T18:16:10.314Z,14.80
2022-11-05T18:18:37.310Z,14.43
2022-11-05T18:21:04.649Z,14.88
2022-11-05T18:23:31.474Z,13.15
2022-11-05T18:25:58.581Z,13.88
2022-11-05T18:28:26.000Z,16.10
2022-11-05T18:30:53.294Z,15.63
2022-11-05T18:33:20.474Z,17.30
2022-11-05T18:35:47.823Z,11.77
2022-11-05T18:38:15.434Z,16.00
2022-11-05T18:40:42.362Z,15.25
2022-11-05T18:43:09.995Z,13.60
2022-11-05T18:45:37.536Z,17.17
2022-11-05T18:48:04.484Z,17.02
2022-11-05T18:50:31.775Z,20.83
2022-11-05T18:52:59.164Z,14.27
2022-11-05T18:55:26.417Z,17.05
2022-11-05T18:57:53.853Z,19.17
2022-11-05T19:00:21.355Z,14.15
2022-11-05T19:02:49.009Z,12.35
2022-11-05T19:05:28.954Z,15.80
2022-11-05T19:07:56.437Z,22.05
2022-11-05T19:10:22.858Z,19.40
2022-11-05T19:12:49.325Z,18.27
2022-11-05T19:15:15.756Z,16.77
2022-11-05T19:17:42.708Z,17.63
2022-11-05T19:20:09.412Z,17.88
2022-11-05T19:22:35.921Z,16.90
2022-11-05T19:25:02.350Z,16.23
2022-11-05T19:27:28.983Z,19.95
2022-11-05T19:29:55.404Z,18.08
2022-11-05T19:32:21.839Z,16.95
2022-11-05T19:34:48.303Z,15.23
2022-11-05T19:37:14.719Z,14.52
2022-11-05T19:39:41.189Z,18.90
2022-11-05T19:42:07.574Z,17.85
2022-11-05T19:44:34.037Z,23.10
2022-11-05T19:47:00.488Z,18.27
2022-11-05T19:49:28.360Z,13.27
2022-11-05T19:51:54.904Z,17.17
2022-11-05T19:54:21.478Z,22.05
2022-11-05T19:56:49.663Z,16.85
2022-11-05T19:59:16.043Z,13.95
2022-11-05T20:01:42.527Z,15.40
2022-11-05T20:04:09.676Z,17.02
2022-11-05T20:06:38.806Z,17.25
2022-11-05T20:09:21.201Z,19.65
2022-11-05T20:11:49.693Z,26.23
2022-11-05T20:14:16.332Z,16.80
2022-11-05T20:16:43.572Z,16.38
2022-11-05T20:19:14.640Z,23.13
2022-11-05T20:24:08.272Z,24.88
2022-11-05T20:26:34.959Z,26.40
2022-11-05T20:29:01.384Z,19.27
2022-11-05T20:31:27.876Z,19.23
2022-11-05T20:33:54.447Z,21.27
2022-11-05T20:36:23.406Z,23.85
2022-11-05T20:38:51.394Z,29.10
2022-11-05T20:41:18.089Z,22.30
2022-11-05T20:43:45.010Z,17.83
2022-11-05T20:46:13.593Z,20.40
2022-11-05T20:48:40.947Z,22.13
2022-11-05T20:51:15.073Z,21.88
2022-11-05T20:53:41.976Z,20.23
2022-11-05T20:56:09.256Z,19.90
2022-11-05T20:58:37.181Z,22.50
2022-11-05T21:01:05.152Z,22.42
2022-11-05T21:03:31.667Z,20.10
2022-11-05T21:05:59.903Z,24.30
2022-11-05T21:08:27.603Z,19.45
2022-11-05T21:10:54.746Z,21.40
2022-11-05T21:13:21.510Z,18.95
2022-11-05T21:15:56.411Z,21.77
2022-11-05T21:18:26.242Z,23.13
2022-11-05T21:20:53.965Z,24.38
2022-11-05T21:23:20.424Z,16.20
2022-11-05T21:25:47.296Z,13.25
2022-11-05T21:28:15.960Z,22.48
2022-11-05T21:30:46.083Z,17.08
2022-11-05T21:33:13.791Z,17.92
2022-11-05T21:35:45.579Z,18.48
2022-11-05T21:38:13.506Z,18.95
2022-11-05T21:40:40.376Z,16.25
2022-11-05T21:43:07.378Z,16.15
2022-11-05T21:45:34.085Z,19.73
2022-11-05T21:48:00.554Z,21.95
2022-11-05T21:50:45.528Z,23.58
2022-11-05T21:53:32.697Z,17.20
2022-11-05T21:56:17.769Z,23.45
2022-11-05T21:59:02.742Z,16.98
2022-11-05T22:01:29.361Z,19.33
2022-11-05T22:04:01.755Z,15.77
2022-11-05T22:06:32.634Z,21.33
2022-11-05T22:08:59.066Z,16.33
2022-11-05T22:11:25.443Z,15.07
2022-11-05T22:13:52.896Z,19.75
2022-11-05T22:16:19.285Z,22.02
2022-11-05T22:18:45.679Z,16.10
2022-11-05T22:21:17.526Z,19.17
2022-11-05T22:23:44.347Z,18.45
2022-11-05T22:26:10.791Z,13.35
2022-11-05T22:28:37.220Z,19.48
2022-11-05T22:31:03.601Z,19.88
2022-11-05T22:33:31.300Z,15.43
2022-11-05T22:35:57.685Z,16.33
2022-11-05T22:38:24.071Z,16.50
2022-11-05T22:40:50.431Z,14.38
2022-11-05T22:43:16.826Z,26.10
2022-11-05T22:45:43.764Z,20.27
2022-11-05T22:48:10.523Z,10.07
2022-11-05T22:50:37.178Z,16.13
2022-11-05T22:53:03.670Z,17.73
2022-11-05T22:55:30.246Z,26.27
2022-11-05T22:57:56.667Z,20.40
2022-11-05T23:00:34.400Z,16.30
2022-11-05T23:03:02.624Z,15.00
2022-11-05T23:05:29.263Z,17.85
2022-11-05T23:08:14.810Z,16.25
2022-11-05T23:10:59.765Z,17.52
2022-11-05T23:13:26.360Z,17.70
2022-11-05T23:16:11.308Z,18.42
2022-11-05T23:18:56.374Z,13.82
2022-11-05T23:21:41.471Z,17.08
2022-11-05T23:24:08.263Z,16.58
2022-11-05T23:26:50.953Z,12.43
2022-11-05T23:29:22.801Z,12.77
2022-11-05T23:32:08.880Z,17.65
2022-11-05T23:34:35.293Z,15.23
2022-11-05T23:37:20.134Z,14.63
2022-11-05T23:39:46.534Z,15.77
2022-11-05T23:42:31.551Z,17.20
2022-11-05T23:45:16.230Z,25.42
2022-11-05T23:48:01.712Z,15.75
2022-11-05T23:50:28.599Z,22.77
2022-11-05T23:52:55.647Z,16.25
2022-11-05T23:55:23.002Z,20.25
2022-11-05T23:57:49.692Z,16.30
